Time;durP1;ratioP1;P1;durP2;ratioP2;P2;SDS_P1;SDS_P2;PMS_P1;PMS_P2;Temp;Humidity;BMP_temperature;BMP_pressure;BME280_temperature;BME280_humidity;BME280_pressure;Samples;Min_cycle;Max_cycle;Signal;HPM_P1;HPM_P2
2023/04/21 00:01:26;;;;;;;24.80;15.95;;;;;;;-144.85;100.00;61331.59;5027963;28;30618;-66
2023/04/21 00:03:54;;;;;;;24.02;15.88;;;;;;;-144.85;100.00;61331.59;5055788;28;31617;-66
2023/04/21 00:06:22;;;;;;;22.83;15.52;;;;;;;-144.85;100.00;61331.59;5024394;28;31475;-66
2023/04/21 00:08:49;;;;;;;23.25;15.50;;;;;;;-144.85;100.00;61331.59;5022921;28;31156;-66
2023/04/21 00:11:17;;;;;;;24.35;15.93;;;;;;;-144.85;100.00;61331.59;5054089;28;31740;-67
2023/04/21 00:13:44;;;;;;;27.20;16.25;;;;;;;-144.85;100.00;61331.59;5048313;28;31491;-66
2023/04/21 00:16:11;;;;;;;23.33;15.65;;;;;;;-144.85;100.00;61331.59;5060036;28;32938;-66
2023/04/21 00:18:39;;;;;;;22.23;15.98;;;;;;;-144.85;100.00;61331.59;5051639;28;32095;-66
2023/04/21 00:21:06;;;;;;;26.55;16.42;;;;;;;-144.85;100.00;61331.59;5052594;28;32627;-66
2023/04/21 00:23:33;;;;;;;25.20;16.85;;;;;;;-144.85;100.00;61331.59;5033627;28;32564;-66
2023/04/21 00:26:01;;;;;;;25.67;15.60;;;;;;;-144.85;100.00;61331.59;5044312;28;32531;-66
2023/04/21 00:28:29;;;;;;;25.63;16.48;;;;;;;-144.85;100.00;61331.59;5057489;28;32208;-66
2023/04/21 00:30:57;;;;;;;24.08;16.10;;;;;;;-144.85;100.00;61331.59;5057667;28;30736;-66
2023/04/21 00:33:25;;;;;;;25.50;16.67;;;;;;;-144.85;100.00;61331.59;5053290;28;32338;-66
2023/04/21 00:35:55;;;;;;;25.27;16.10;;;;;;;-144.85;100.00;61331.59;5044930;28;32078;-66
2023/04/21 00:38:23;;;;;;;23.23;16.02;;;;;;;-144.85;100.00;61331.59;5052698;28;32500;-66
2023/04/21 00:40:50;;;;;;;24.80;17.42;;;;;;;-144.85;100.00;61331.59;5038810;28;31753;-66
2023/04/21 00:43:17;;;;;;;27.17;16.75;;;;;;;-144.85;100.00;61331.59;5022091;28;30627;-66
2023/04/21 00:45:48;;;;;;;27.23;17.25;;;;;;;-144.85;100.00;61331.59;5031426;28;32618;-66
2023/04/21 00:48:16;;;;;;;25.30;16.55;;;;;;;-144.85;100.00;61331.59;5058665;28;31263;-66
2023/04/21 00:50:44;;;;;;;28.05;17.25;;;;;;;-144.85;100.00;61331.59;5057415;28;32259;-66
2023/04/21 00:53:13;;;;;;;26.50;16.88;;;;;;;-144.85;100.00;61331.59;5058260;28;31576;-66
2023/04/21 00:55:40;;;;;;;25.85;16.33;;;;;;;-144.85;100.00;61331.59;5057954;28;31462;-66
2023/04/21 00:58:09;;;;;;;25.98;16.58;;;;;;;-144.85;100.00;61331.59;5057961;28;30487;-66
2023/04/21 01:00:38;;;;;;;24.00;16.42;;;;;;;-144.85;100.00;61331.59;5055320;28;30588;-66
2023/04/21 01:03:06;;;;;;;25.10;16.83;;;;;;;-144.85;100.00;61331.59;5046480;28;31341;-65
2023/04/21 01:05:35;;;;;;;27.63;17.05;;;;;;;-144.85;100.00;61331.59;5058537;28;32380;-66
2023/04/21 01:08:05;;;;;;;26.40;16.65;;;;;;;-144.85;100.00;61331.59;5056534;28;32098;-66
2023/04/21 01:10:32;;;;;;;26.58;17.15;;;;;;;-144.85;100.00;61331.59;5058796;28;31993;-66
2023/04/21 01:12:59;;;;;;;25.40;16.73;;;;;;;-144.85;100.00;61331.59;5057545;28;32007;-66
2023/04/21 01:15:29;;;;;;;28.70;17.40;;;;;;;-144.85;100.00;61331.59;5057835;28;32376;-66
2023/04/21 01:17:57;;;;;;;27.25;16.77;;;;;;;-144.85;100.00;61331.59;5043555;28;31879;-66
2023/04/21 01:20:25;;;;;;;26.60;17.40;;;;;;;-144.85;100.00;61331.59;5032172;28;30571;-66
2023/04/21 01:22:52;;;;;;;29.52;17.70;;;;;;;-144.85;100.00;61331.59;5050885;28;30421;-66
2023/04/21 01:25:22;;;;;;;27.80;17.50;;;;;;;-144.85;100.00;61331.59;5037912;28;32508;-66
2023/04/21 01:27:50;;;;;;;26.70;17.52;;;;;;;-144.85;100.00;61331.59;5036329;28;33306;-66
2023/04/21 01:30:20;;;;;;;31.17;19.60;;;;;;;-144.85;100.00;61331.59;5037786;28;30890;-66
2023/04/21 01:32:47;;;;;;;33.90;19.40;;;;;;;-144.85;100.00;61331.59;5019869;28;30294;-67
2023/04/21 01:35:14;;;;;;;31.30;19.13;;;;;;;-144.85;100.00;61331.59;5038875;28;32073;-66
2023/04/21 01:37:42;;;;;;;31.95;19.63;;;;;;;-144.85;100.00;61331.59;5039024;28;33335;-65
2023/04/21 01:40:11;;;;;;;35.20;19.90;;;;;;;-144.85;100.00;61331.59;5037760;28;30789;-65
2023/04/21 01:42:39;;;;;;;30.55;19.75;;;;;;;-144.85;100.00;61331.59;5036597;28;31671;-65
2023/04/21 01:45:07;;;;;;;30.38;19.02;;;;;;;-144.85;100.00;61331.59;5037898;28;33025;-65
2023/04/21 01:47:36;;;;;;;29.95;19.02;;;;;;;-144.85;100.00;61331.59;5037884;28;31010;-65
2023/04/21 01:50:05;;;;;;;32.42;20.10;;;;;;;-144.85;100.00;61331.59;5037174;28;30640;-66
2023/04/21 01:52:32;;;;;;;32.08;20.67;;;;;;;-144.85;100.00;61331.59;5051302;28;31711;-65
2023/04/21 01:55:00;;;;;;;35.65;20.88;;;;;;;-144.85;100.00;61331.59;5037335;28;31590;-65
2023/04/21 01:57:27;;;;;;;36.95;21.35;;;;;;;-144.85;100.00;61331.59;5037393;28;31055;-65
2023/04/21 01:59:55;;;;;;;37.13;20.98;;;;;;;-144.85;100.00;61331.59;5038122;28;30718;-65
2023/04/21 02:02:22;;;;;;;34.47;21.13;;;;;;;-144.85;100.00;61331.59;5036389;28;31514;-65
2023/04/21 02:04:50;;;;;;;35.15;20.52;;;;;;;-144.85;100.00;61331.59;5035769;28;32514;-66
2023/04/21 02:07:17;;;;;;;36.47;21.33;;;;;;;-144.85;100.00;61331.59;5036843;28;32284;-66
2023/04/21 02:09:45;;;;;;;33.95;20.38;;;;;;;-144.85;100.00;61331.59;5037786;28;30624;-65
2023/04/21 02:12:14;;;;;;;35.05;20.67;;;;;;;-144.85;100.00;61331.59;5020756;28;30404;-65
2023/04/21 02:14:42;;;;;;;33.95;20.98;;;;;;;-144.85;100.00;61331.59;5049572;28;31524;-66
2023/04/21 02:17:10;;;;;;;32.47;19.75;;;;;;;-144.85;100.00;61331.59;5038544;28;31990;-65
2023/04/21 02:19:37;;;;;;;38.63;22.02;;;;;;;-144.85;100.00;61331.59;5035798;28;32273;-65
2023/04/21 02:22:07;;;;;;;38.13;21.73;;;;;;;-144.85;100.00;61331.59;5033561;28;32112;-65
2023/04/21 02:24:34;;;;;;;35.65;21.05;;;;;;;-144.85;100.00;61331.59;5035722;28;33564;-66
2023/04/21 02:27:02;;;;;;;35.72;21.52;;;;;;;-144.85;100.00;61331.59;5038995;28;30594;-66
2023/04/21 02:29:29;;;;;;;37.55;22.35;;;;;;;-144.85;100.00;61331.59;5040645;28;31836;-65
2023/04/21 02:31:56;;;;;;;38.90;22.77;;;;;;;-144.85;100.00;61331.59;5039856;28;30427;-66
2023/04/21 02:34:37;;;;;;;38.95;21.65;;;;;;;-144.85;100.00;61331.59;5040339;28;31343;-65
2023/04/21 02:37:05;;;;;;;39.55;22.20;;;;;;;-144.85;100.00;61331.59;5040602;28;32176;-65
2023/04/21 02:39:32;;;;;;;37.78;22.63;;;;;;;-144.85;100.00;61331.59;5037819;28;32235;-65
2023/04/21 02:42:00;;;;;;;39.70;23.00;;;;;;;-144.85;100.00;61331.59;5041331;28;32686;-66
2023/04/21 02:44:28;;;;;;;39.90;22.83;;;;;;;-144.85;100.00;61331.59;5041622;28;32549;-66
2023/04/21 02:46:55;;;;;;;37.80;22.42;;;;;;;-144.85;100.00;61331.59;5038342;28;32004;-66
2023/04/21 02:49:22;;;;;;;38.45;22.85;;;;;;;-144.85;100.00;61331.59;5040047;28;32331;-66
2023/04/21 02:51:50;;;;;;;39.78;22.90;;;;;;;-144.85;100.00;61331.59;5039697;28;30791;-66
2023/04/21 02:54:17;;;;;;;38.28;21.58;;;;;;;-144.85;100.00;61331.59;5039707;28;31147;-66
2023/04/21 02:56:45;;;;;;;42.35;24.75;;;;;;;-144.85;100.00;61331.59;5056720;28;30906;-66
2023/04/21 02:59:15;;;;;;;43.22;23.38;;;;;;;-144.85;100.00;61331.59;5038790;28;32198;-65
2023/04/21 03:01:42;;;;;;;40.90;23.30;;;;;;;-144.85;100.00;61331.59;5039383;28;31928;-66
2023/04/21 03:04:10;;;;;;;43.28;24.60;;;;;;;-144.85;100.00;61331.59;5041333;28;33262;-66
2023/04/21 03:06:37;;;;;;;44.15;23.38;;;;;;;-144.85;100.00;61331.59;5040087;28;31261;-66
2023/04/21 03:09:05;;;;;;;38.95;23.65;;;;;;;-144.85;100.00;61331.59;5038649;28;31746;-67
2023/04/21 03:11:32;;;;;;;41.40;23.45;;;;;;;-144.85;100.00;61331.59;5040904;28;31787;-66
2023/04/21 03:13:59;;;;;;;43.10;24.95;;;;;;;-144.85;100.00;61331.59;5050241;28;33495;-66
2023/04/21 03:16:26;;;;;;;38.45;23.73;;;;;;;-144.85;100.00;61331.59;5038436;28;32174;-66
2023/04/21 03:18:54;;;;;;;40.80;23.73;;;;;;;-144.85;100.00;61331.59;5040158;28;31831;-66
2023/04/21 03:21:21;;;;;;;42.83;23.50;;;;;;;-144.85;100.00;61331.59;5036774;28;32624;-66
2023/04/21 03:23:48;;;;;;;40.42;23.88;;;;;;;-144.85;100.00;61331.59;5019590;28;31231;-66
2023/04/21 03:26:15;;;;;;;40.53;23.10;;;;;;;-144.85;100.00;61331.59;5049019;28;32173;-66
2023/04/21 03:28:43;;;;;;;40.83;23.83;;;;;;;-144.85;100.00;61331.59;5038467;28;32812;-66
2023/04/21 03:31:10;;;;;;;41.40;23.85;;;;;;;-144.85;100.00;61331.59;5052374;28;29976;-66
2023/04/21 03:33:37;;;;;;;43.10;24.48;;;;;;;-144.85;100.00;61331.59;5032392;28;31150;-66
2023/04/21 03:36:05;;;;;;;40.47;23.90;;;;;;;-144.85;100.00;61331.59;5041206;28;31767;-66
2023/04/21 03:38:32;;;;;;;42.25;24.65;;;;;;;-144.85;100.00;61331.59;5038887;28;31794;-66
2023/04/21 03:41:03;;;;;;;46.17;24.65;;;;;;;-144.85;100.00;61331.59;5022451;28;30495;-66
2023/04/21 03:43:30;;;;;;;41.20;24.13;;;;;;;-144.85;100.00;61331.59;5039606;28;31411;-66
2023/04/21 03:45:57;;;;;;;42.42;24.48;;;;;;;-144.85;100.00;61331.59;5039355;28;31079;-67
2023/04/21 03:48:27;;;;;;;41.90;24.60;;;;;;;-144.85;100.00;61331.59;5047226;28;31583;-66
2023/04/21 03:50:54;;;;;;;40.80;23.45;;;;;;;-144.85;100.00;61331.59;5041651;28;31540;-66
2023/04/21 03:53:21;;;;;;;43.42;23.90;;;;;;;-144.85;100.00;61331.59;5039520;28;33504;-66
2023/04/21 03:55:49;;;;;;;41.25;24.40;;;;;;;-144.85;100.00;61331.59;5036852;28;32241;-66
2023/04/21 03:58:17;;;;;;;47.15;24.85;;;;;;;-144.85;100.00;61331.59;5023764;28;31867;-66
2023/04/21 04:00:44;;;;;;;43.45;24.52;;;;;;;-144.85;100.00;61331.59;5039288;28;31980;-66
2023/04/21 04:03:11;;;;;;;41.40;25.48;;;;;;;-144.85;100.00;61331.59;5040169;28;32495;-66
2023/04/21 04:05:39;;;;;;;39.92;24.35;;;;;;;-144.85;100.00;61331.59;5037803;28;33023;-65
2023/04/21 04:08:06;;;;;;;46.60;25.10;;;;;;;-144.85;100.00;61331.59;5037642;28;32923;-66
2023/04/21 04:10:33;;;;;;;41.58;24.75;;;;;;;-144.85;100.00;61331.59;5037113;28;32643;-66
2023/04/21 04:13:00;;;;;;;43.15;24.30;;;;;;;-144.85;100.00;61331.59;5038353;28;32460;-66
2023/04/21 04:15:28;;;;;;;42.58;25.65;;;;;;;-144.85;100.00;61331.59;5038907;28;32182;-66
2023/04/21 04:17:55;;;;;;;43.42;25.45;;;;;;;-144.85;100.00;61331.59;5037713;28;32478;-66
2023/04/21 04:20:22;;;;;;;44.50;24.98;;;;;;;-144.85;100.00;61331.59;5037987;28;31617;-66
2023/04/21 04:22:49;;;;;;;45.55;25.90;;;;;;;-144.85;100.00;61331.59;5037201;28;33704;-66
2023/04/21 04:25:17;;;;;;;41.53;24.27;;;;;;;-144.85;100.00;61331.59;5036864;28;33226;-66
2023/04/21 04:27:45;;;;;;;44.13;24.92;;;;;;;-144.85;100.00;61331.59;5038524;28;30604;-66
2023/04/21 04:30:12;;;;;;;42.03;24.10;;;;;;;-144.85;100.00;61331.59;5036903;28;31600;-66
2023/04/21 04:32:40;;;;;;;47.08;25.38;;;;;;;-144.85;100.00;61331.59;5037892;28;32785;-66
2023/04/21 04:35:09;;;;;;;42.30;23.77;;;;;;;-144.85;100.00;61331.59;5035148;28;33450;-66
2023/04/21 04:37:36;;;;;;;46.22;25.65;;;;;;;-144.85;100.00;61331.59;5036002;28;32910;-66
2023/04/21 04:40:05;;;;;;;41.63;23.35;;;;;;;-144.85;100.00;61331.59;5036344;28;31621;-66
2023/04/21 04:42:33;;;;;;;44.25;24.42;;;;;;;-144.85;100.00;61331.59;5037300;28;32580;-66
2023/04/21 04:45:01;;;;;;;44.20;25.83;;;;;;;-144.85;100.00;61331.59;5038022;28;32051;-66
2023/04/21 04:47:28;;;;;;;47.88;26.08;;;;;;;-144.85;100.00;61331.59;5037567;28;32646;-66
2023/04/21 04:49:55;;;;;;;47.40;26.15;;;;;;;-144.85;100.00;61331.59;5037715;28;32601;-66
2023/04/21 04:52:23;;;;;;;47.60;26.33;;;;;;;-144.85;100.00;61331.59;5037785;28;31092;-66
2023/04/21 04:54:51;;;;;;;49.85;26.27;;;;;;;-144.85;100.00;61331.59;5039874;28;20050;-66
2023/04/21 04:57:18;;;;;;;41.20;24.60;;;;;;;-144.85;100.00;61331.59;5039901;28;32668;-66
2023/04/21 04:59:45;;;;;;;46.88;25.55;;;;;;;-144.85;100.00;61331.59;5035503;28;31285;-66
2023/04/21 05:02:13;;;;;;;47.83;26.20;;;;;;;-144.85;100.00;61331.59;5035106;28;32368;-66
2023/04/21 05:04:41;;;;;;;44.50;25.73;;;;;;;-144.85;100.00;61331.59;5036212;28;32344;-66
2023/04/21 05:07:08;;;;;;;47.47;26.15;;;;;;;-144.85;100.00;61331.59;5037215;28;31939;-66
2023/04/21 05:09:35;;;;;;;41.92;24.60;;;;;;;-144.85;100.00;61331.59;5037160;28;32401;-66
2023/04/21 05:12:04;;;;;;;49.95;26.65;;;;;;;-144.85;100.00;61331.59;5038840;28;32571;-66
2023/04/21 05:14:31;;;;;;;45.22;26.20;;;;;;;-144.85;100.00;61331.59;5038767;28;31186;-66
2023/04/21 05:16:59;;;;;;;45.10;22.60;;;;;;;-144.85;100.00;61331.59;5036811;28;32859;-66
2023/04/21 05:19:26;;;;;;;45.08;22.73;;;;;;;-144.85;100.00;61331.59;5037143;28;31689;-66
2023/04/21 05:21:59;;;;;;;43.13;22.17;;;;;;;-144.85;100.00;61331.59;5035207;28;32799;-66
2023/04/21 05:24:27;;;;;;;41.72;22.15;;;;;;;-144.85;100.00;61331.59;5040004;28;33406;-66
2023/04/21 05:26:54;;;;;;;43.80;22.25;;;;;;;-144.85;100.00;61331.59;5052407;28;31837;-66
2023/04/21 05:29:21;;;;;;;47.53;23.25;;;;;;;-144.85;100.00;61331.59;5037866;28;31548;-66
2023/04/21 05:31:49;;;;;;;44.33;22.45;;;;;;;-144.85;100.00;61331.59;5037571;28;32744;-66
2023/04/21 05:34:16;;;;;;;46.67;23.52;;;;;;;-144.85;100.00;61331.59;5021677;28;30918;-66
2023/04/21 05:36:43;;;;;;;48.03;24.02;;;;;;;-144.85;100.00;61331.59;5038373;28;30742;-66
2023/04/21 05:39:11;;;;;;;44.55;23.52;;;;;;;-144.85;100.00;61331.59;5039858;28;31031;-66
2023/04/21 05:41:38;;;;;;;43.05;22.63;;;;;;;-144.85;100.00;61331.59;5039098;28;31966;-76
2023/04/21 05:44:05;;;;;;;44.28;23.17;;;;;;;-144.85;100.00;61331.59;5039218;28;32207;-66
2023/04/21 05:46:33;;;;;;;46.60;24.20;;;;;;;-144.85;100.00;61331.59;5030353;28;31665;-66
2023/04/21 05:49:01;;;;;;;46.92;23.92;;;;;;;-144.85;100.00;61331.59;5016010;28;30753;-66
2023/04/21 05:51:28;;;;;;;44.60;23.40;;;;;;;-144.85;100.00;61331.59;5022014;28;32737;-66
2023/04/21 05:53:56;;;;;;;46.83;23.85;;;;;;;-144.85;100.00;61331.59;5038760;28;32149;-66
2023/04/21 05:56:23;;;;;;;48.83;24.50;;;;;;;-144.85;100.00;61331.59;5037928;28;30676;-66
2023/04/21 05:58:50;;;;;;;47.40;23.92;;;;;;;-144.85;100.00;61331.59;5036584;28;31425;-66
2023/04/21 06:01:17;;;;;;;45.72;24.52;;;;;;;-144.85;100.00;61331.59;5038877;28;32363;-66
2023/04/21 06:03:47;;;;;;;46.55;23.95;;;;;;;-144.85;100.00;61331.59;5042225;28;32366;-66
2023/04/21 06:06:16;;;;;;;49.13;24.73;;;;;;;-144.85;100.00;61331.59;5039723;28;32502;-66
2023/04/21 06:08:43;;;;;;;45.95;24.20;;;;;;;-144.85;100.00;61331.59;5041097;28;30310;-66
2023/04/21 06:11:10;;;;;;;43.00;25.33;;;;;;;-144.85;100.00;61331.59;5040051;28;32388;-66
2023/04/21 06:13:38;;;;;;;45.33;24.02;;;;;;;-144.85;100.00;61331.59;5041572;28;32242;-66
2023/04/21 06:16:08;;;;;;;48.67;26.08;;;;;;;-144.85;100.00;61331.59;5028769;28;31915;-66
2023/04/21 06:18:35;;;;;;;46.75;24.85;;;;;;;-144.85;100.00;61331.59;5038864;28;32710;-70
2023/04/21 06:21:03;;;;;;;49.88;25.77;;;;;;;-144.85;100.00;61331.59;5038621;28;32563;-66
2023/04/21 06:23:30;;;;;;;44.67;24.40;;;;;;;-144.85;100.00;61331.59;5041365;28;31924;-66
2023/04/21 06:25:59;;;;;;;42.08;24.13;;;;;;;-144.85;100.00;61331.59;5040540;28;31877;-66
2023/04/21 06:28:27;;;;;;;43.47;23.70;;;;;;;-144.85;100.00;61331.59;5041127;28;32571;-66
2023/04/21 06:30:55;;;;;;;44.65;23.60;;;;;;;-144.85;100.00;61331.59;5038700;28;33576;-66
2023/04/21 06:33:22;;;;;;;41.85;23.13;;;;;;;-144.85;100.00;61331.59;5040233;28;30936;-66
2023/04/21 06:35:49;;;;;;;42.17;24.67;;;;;;;-144.85;100.00;61331.59;5039268;28;32899;-66
2023/04/21 06:38:16;;;;;;;45.50;24.70;;;;;;;-144.85;100.00;61331.59;5041008;28;30360;-66
2023/04/21 06:40:44;;;;;;;47.63;25.33;;;;;;;-144.85;100.00;61331.59;5022898;28;31246;-66
2023/04/21 06:43:11;;;;;;;42.00;23.48;;;;;;;-144.85;100.00;61331.59;5040913;28;33248;-66
2023/04/21 06:45:38;;;;;;;43.63;23.05;;;;;;;-144.85;100.00;61331.59;5041365;28;31974;-66
2023/04/21 06:48:05;;;;;;;40.78;23.02;;;;;;;-144.85;100.00;61331.59;5026639;28;30541;-66
2023/04/21 06:50:33;;;;;;;42.28;23.45;;;;;;;-144.85;100.00;61331.59;5038742;28;32500;-66
2023/04/21 06:53:00;;;;;;;45.42;24.20;;;;;;;-144.85;100.00;61331.59;5039778;28;33542;-66
2023/04/21 06:55:27;;;;;;;40.65;23.00;;;;;;;-144.85;100.00;61331.59;5040812;28;31994;-66
2023/04/21 06:57:55;;;;;;;41.88;25.98;;;;;;;-144.85;100.00;61331.59;5040304;28;31914;-66
2023/04/21 07:00:22;;;;;;;42.25;25.70;;;;;;;-144.85;100.00;61331.59;5038715;28;32472;-65
2023/04/21 07:02:49;;;;;;;41.15;25.98;;;;;;;-144.85;100.00;61331.59;5038803;28;31614;-66
2023/04/21 07:05:17;;;;;;;39.85;24.92;;;;;;;-144.85;100.00;61331.59;5038264;28;32156;-66
2023/04/21 07:07:44;;;;;;;41.08;24.77;;;;;;;-144.85;100.00;61331.59;5040360;28;30848;-66
2023/04/21 07:10:17;;;;;;;38.47;24.77;;;;;;;-144.85;100.00;61331.59;5025071;28;32487;-66
2023/04/21 07:12:45;;;;;;;39.00;25.60;;;;;;;-144.85;100.00;61331.59;5037926;28;32221;-67
2023/04/21 07:15:13;;;;;;;37.35;24.63;;;;;;;-144.85;100.00;61331.59;5041653;28;32116;-65
2023/04/21 07:17:41;;;;;;;40.10;25.00;;;;;;;-144.85;100.00;61331.59;5053592;28;30306;-66
2023/04/21 07:20:08;;;;;;;34.30;22.58;;;;;;;-144.85;100.00;61331.59;5037756;28;32489;-66
2023/04/21 07:22:36;;;;;;;38.08;23.75;;;;;;;-144.85;100.00;61331.59;5038032;28;32188;-65
2023/04/21 07:25:07;;;;;;;36.20;23.00;;;;;;;-144.85;100.00;61331.59;5038381;28;31885;-65
2023/04/21 07:27:37;;;;;;;38.22;24.05;;;;;;;-144.85;100.00;61331.59;5041183;28;31622;-65
2023/04/21 07:30:05;;;;;;;33.70;22.90;;;;;;;-144.85;100.00;61331.59;5038890;28;32531;-65
2023/04/21 07:32:33;;;;;;;34.17;22.75;;;;;;;-144.85;100.00;61331.59;5036878;28;32593;-66
2023/04/21 07:35:01;;;;;;;36.60;23.20;;;;;;;-144.85;100.00;61331.59;5038334;28;32001;-66
2023/04/21 07:37:29;;;;;;;35.03;21.98;;;;;;;-144.85;100.00;61331.59;5039801;28;31362;-66
2023/04/21 07:39:56;;;;;;;32.35;22.08;;;;;;;-144.85;100.00;61331.59;5041305;28;32786;-66
2023/04/21 07:42:25;;;;;;;31.52;21.58;;;;;;;-144.85;100.00;61331.59;5037708;28;32440;-66
2023/04/21 07:44:54;;;;;;;33.42;22.10;;;;;;;-144.85;100.00;61331.59;5039004;28;31960;-66
2023/04/21 07:47:22;;;;;;;31.90;21.48;;;;;;;-144.85;100.00;61331.59;5038190;28;31932;-66
2023/04/21 07:49:49;;;;;;;30.42;20.55;;;;;;;-144.85;100.00;61331.59;5040221;28;32073;-66
2023/04/21 07:52:17;;;;;;;23.98;13.02;;;;;;;-144.85;100.00;61331.59;5037461;28;32184;-65
2023/04/21 07:54:44;;;;;;;25.60;13.32;;;;;;;-144.85;100.00;61331.59;5039390;28;30675;-65
2023/04/21 07:57:11;;;;;;;23.10;12.50;;;;;;;-144.85;100.00;61331.59;5038502;28;32730;-65
2023/04/21 07:59:39;;;;;;;24.25;13.43;;;;;;;-144.85;100.00;61331.59;5037946;28;32457;-65
2023/04/21 08:02:07;;;;;;;22.80;12.68;;;;;;;-144.85;100.00;61331.59;5038149;28;31946;-65
2023/04/21 08:04:35;;;;;;;21.05;11.45;;;;;;;-144.85;100.00;61331.59;5040381;28;32400;-65
2023/04/21 08:07:02;;;;;;;21.10;12.30;;;;;;;-144.85;100.00;61331.59;5037763;28;31398;-66
2023/04/21 08:09:30;;;;;;;28.85;19.67;;;;;;;-144.85;100.00;61331.59;5038037;28;33697;-65
2023/04/21 08:11:58;;;;;;;27.83;19.50;;;;;;;-144.85;100.00;61331.59;5035964;28;32160;-65
2023/04/21 08:14:25;;;;;;;27.83;19.17;;;;;;;-144.85;100.00;61331.59;5039564;28;31780;-66
2023/04/21 08:16:53;;;;;;;25.80;18.35;;;;;;;-144.85;100.00;61331.59;5036365;28;31597;-66
2023/04/21 08:19:23;;;;;;;28.08;18.35;;;;;;;-144.85;100.00;61331.59;5040162;28;33456;-66
2023/04/21 08:21:50;;;;;;;27.20;18.55;;;;;;;-144.85;100.00;61331.59;5038483;28;31118;-66
2023/04/21 08:24:18;;;;;;;25.13;18.00;;;;;;;-144.85;100.00;61331.59;5040552;28;31567;-66
2023/04/21 08:26:46;;;;;;;26.88;16.90;;;;;;;-144.85;100.00;61331.59;5037114;28;31459;-65
2023/04/21 08:29:13;;;;;;;26.48;18.58;;;;;;;-144.85;100.00;61331.59;5040780;28;33132;-65
2023/04/21 08:31:40;;;;;;;25.08;17.33;;;;;;;-144.85;100.00;61331.59;5038965;28;33000;-66
2023/04/21 08:34:08;;;;;;;26.67;17.90;;;;;;;-144.85;100.00;61331.59;5040226;28;31406;-65
2023/04/21 08:36:35;;;;;;;26.98;18.75;;;;;;;-144.85;100.00;61331.59;5055254;28;30307;-65
2023/04/21 08:39:03;;;;;;;27.75;18.58;;;;;;;-144.85;100.00;61331.59;5038039;28;33518;-66
2023/04/21 08:41:30;;;;;;;28.58;19.23;;;;;;;-144.85;100.00;61331.59;5029910;28;30761;-66
2023/04/21 08:43:57;;;;;;;28.23;19.77;;;;;;;-144.85;100.00;61331.59;5032734;28;31814;-66
2023/04/21 08:46:26;;;;;;;27.55;19.48;;;;;;;-144.85;100.00;61331.59;5038239;28;30232;-65
2023/04/21 08:48:54;;;;;;;31.50;20.83;;;;;;;-144.85;100.00;61331.59;5036919;28;32768;-66
2023/04/21 08:51:22;;;;;;;28.60;19.35;;;;;;;-144.85;100.00;61331.59;5037846;28;30924;-66
2023/04/21 08:53:50;;;;;;;29.85;20.42;;;;;;;-144.85;100.00;61331.59;5039066;28;31588;-66
2023/04/21 08:56:18;;;;;;;30.40;19.42;;;;;;;-144.85;100.00;61331.59;5022319;28;30517;-66
2023/04/21 08:58:46;;;;;;;28.63;19.73;;;;;;;-144.85;100.00;61331.59;5035587;28;32467;-66
2023/04/21 09:01:13;;;;;;;27.25;19.10;;;;;;;-144.85;100.00;61331.59;5034597;28;32272;-66
2023/04/21 09:03:41;;;;;;;29.20;19.20;;;;;;;-144.85;100.00;61331.59;5039944;28;31445;-66
2023/04/21 09:06:11;;;;;;;25.20;18.83;;;;;;;-144.85;100.00;61331.59;5036971;28;32393;-66
2023/04/21 09:08:51;;;;;;;27.73;19.35;;;;;;;-144.85;100.00;61331.59;5036783;28;32431;-66
2023/04/21 09:11:18;;;;;;;29.13;19.02;;;;;;;-144.85;100.00;61331.59;5054211;28;31076;-66
2023/04/21 09:13:46;;;;;;;28.05;19.42;;;;;;;-144.85;100.00;61331.59;5037589;28;31310;-66
2023/04/21 09:16:20;;;;;;;27.85;19.58;;;;;;;-144.85;100.00;61331.59;5018724;28;30555;-65
2023/04/21 09:18:49;;;;;;;;;;;;;;;-144.85;100.00;61331.59;5027296;28;32207;-66
2023/04/21 09:21:18;;;;;;;29.15;17.88;;;;;;;-144.85;100.00;61331.59;5028335;28;33537;-66
2023/04/21 09:23:48;;;;;;;25.65;17.70;;;;;;;-144.85;100.00;61331.59;5050764;28;31683;-65
2023/04/21 09:26:17;;;;;;;24.38;17.85;;;;;;;-144.85;100.00;61331.59;5055562;28;30848;-65
2023/04/21 09:28:46;;;;;;;26.73;17.63;;;;;;;-144.85;100.00;61331.59;5035515;28;32942;-66
2023/04/21 09:31:15;;;;;;;25.40;16.35;;;;;;;-144.85;100.00;61331.59;5040815;28;33049;-65
2023/04/21 09:33:46;;;;;;;23.92;17.20;;;;;;;-144.85;100.00;61331.59;5039812;28;31858;-65
2023/04/21 09:36:27;;;;;;;24.25;17.00;;;;;;;-144.85;100.00;61331.59;5031930;28;31887;-65
2023/04/21 09:39:00;;;;;;;23.13;16.45;;;;;;;-144.85;100.00;61331.59;5042349;28;32209;-65
2023/04/21 09:41:31;;;;;;;24.65;17.85;;;;;;;-144.85;100.00;61331.59;5043668;28;33336;-65
2023/04/21 09:44:03;;;;;;;26.05;17.90;;;;;;;-144.85;100.00;61331.59;5042978;28;32004;-65
2023/04/21 09:46:33;;;;;;;28.38;18.85;;;;;;;-144.85;100.00;61331.59;5054018;28;32607;-66
2023/04/21 09:49:02;;;;;;;25.50;19.27;;;;;;;-144.85;100.00;61331.59;5039285;28;32090;-66
2023/04/21 09:51:31;;;;;;;25.05;18.40;;;;;;;-144.85;100.00;61331.59;5037019;28;32151;-65
2023/04/21 09:54:20;;;;;;;24.02;17.50;;;;;;;-144.85;100.00;61331.59;5038715;28;31643;-66
2023/04/21 09:57:02;;;;;;;25.20;19.75;;;;;;;-144.85;100.00;61331.59;5047465;28;31226;-66
2023/04/21 09:59:39;;;;;;;26.38;19.92;;;;;;;-144.85;100.00;61331.59;5036793;28;34027;-66
2023/04/21 10:02:08;;;;;;;25.42;20.40;;;;;;;-144.85;100.00;61331.59;5047346;28;32308;-66
2023/04/21 10:04:36;;;;;;;26.63;21.35;;;;;;;-144.85;100.00;61331.59;5056389;28;31798;-66
2023/04/21 10:07:05;;;;;;;28.35;20.40;;;;;;;-144.85;100.00;61331.59;5024564;28;30177;-66
2023/04/21 10:09:38;;;;;;;30.90;23.33;;;;;;;-144.85;100.00;61331.59;5043887;28;32539;-66
2023/04/21 10:12:07;;;;;;;32.80;24.25;;;;;;;-144.85;100.00;61331.59;5048837;28;32985;-63
2023/04/21 10:14:36;;;;;;;29.48;22.25;;;;;;;-144.85;100.00;61331.59;5053578;28;31734;-66
2023/04/21 10:17:05;;;;;;;30.85;22.80;;;;;;;-144.85;100.00;61331.59;5045261;28;30185;-63
2023/04/21 10:19:38;;;;;;;29.70;22.70;;;;;;;-144.85;100.00;61331.59;5048316;28;32258;-65
2023/04/21 10:22:10;;;;;;;27.83;21.38;;;;;;;-144.85;100.00;61331.59;5044796;28;30666;-66
2023/04/21 10:24:40;;;;;;;28.92;21.52;;;;;;;-144.85;100.00;61331.59;5035756;28;30516;-65
2023/04/21 10:27:29;;;;;;;26.17;20.48;;;;;;;-144.85;100.00;61331.59;5030797;28;30503;-65
2023/04/21 10:29:57;;;;;;;26.92;19.60;;;;;;;-144.85;100.00;61331.59;5044260;28;32706;-65
2023/04/21 10:33:01;;;;;;;24.92;19.23;;;;;;;-144.85;100.00;61331.59;5034165;28;32147;-66
2023/04/21 10:36:01;;;;;;;23.90;18.48;;;;;;;-144.85;100.00;61331.59;5021383;28;31596;-66
2023/04/21 10:38:39;;;;;;;25.70;19.50;;;;;;;-144.85;100.00;61331.59;5063950;28;31471;-66
2023/04/21 10:41:30;;;;;;;25.15;19.55;;;;;;;-144.85;100.00;61331.59;5036033;28;32328;-66
2023/04/21 10:44:11;;;;;;;25.73;19.88;;;;;;;-144.85;100.00;61331.59;5036075;28;32272;-66
2023/04/21 10:46:48;;;;;;;27.75;19.58;;;;;;;-144.85;100.00;61331.59;5035586;28;31706;-66
2023/04/21 10:49:23;;;;;;;26.95;20.80;;;;;;;-144.85;100.00;61331.59;5056776;28;30413;-66
2023/04/21 10:51:56;;;;;;;27.65;21.80;;;;;;;-144.85;100.00;61331.59;5042812;28;32283;-66
2023/04/21 10:54:24;;;;;;;27.92;21.50;;;;;;;-144.85;100.00;61331.59;5039969;28;32363;-66
2023/04/21 10:56:53;;;;;;;31.48;23.95;;;;;;;-144.85;100.00;61331.59;5036898;28;31921;-66
2023/04/21 10:59:21;;;;;;;30.63;23.67;;;;;;;-144.85;100.00;61331.59;5036253;28;31323;-66
2023/04/21 11:01:48;;;;;;;30.85;24.10;;;;;;;-144.85;100.00;61331.59;5038522;28;33169;-66